Time;durP1;ratioP1;P1;durP2;ratioP2;P2;SDS_P1;SDS_P2;PMS_P1;PMS_P2;Temp;Humidity;BMP_temperature;BMP_pressure;BME280_temperature;BME280_humidity;BME280_pressure;Samples;Min_cycle;Max_cycle;Signal;HPM_P1;HPM_P2
2022/03/18 01:29:17;;;;;;;20.08;7.25;;;;;;;;;;6183058;22;20028;-89
2022/03/18 01:31:43;;;;;;;16.95;7.68;;;;;;;;;;6150019;23;20020;-90
2022/03/18 01:34:10;;;;;;;25.63;8.57;;;;;;;;;;6125749;23;20016;-89
2022/03/18 01:36:36;;;;;;;21.33;8.13;;;;;;;;;;6123655;23;20017;-89
2022/03/18 01:39:03;;;;;;;18.42;7.30;;;;;;;;;;6148055;23;20271;-90
2022/03/18 01:41:29;;;;;;;22.42;8.15;;;;;;;;;;6148659;23;20664;-90
2022/03/18 01:43:56;;;;;;;20.02;7.57;;;;;;;;;;6153659;23;20473;-89
2022/03/18 01:46:22;;;;;;;20.45;7.60;;;;;;;;;;6152607;23;20012;-89
2022/03/18 01:48:48;;;;;;;23.33;7.55;;;;;;;;;;6153021;23;20016;-89
2022/03/18 01:51:15;;;;;;;16.80;7.45;;;;;;;;;;6151049;23;20103;-89
2022/03/18 01:53:43;;;;;;;17.27;7.22;;;;;;;;;;6150718;23;20358;-89
2022/03/18 01:56:09;;;;;;;24.88;7.65;;;;;;;;;;6150415;23;20531;-88
2022/03/18 01:58:36;;;;;;;18.25;7.25;;;;;;;;;;6151274;23;20059;-88
2022/03/18 02:01:03;;;;;;;21.02;7.43;;;;;;;;;;6148591;23;20063;-88
2022/03/18 02:03:29;;;;;;;19.63;7.25;;;;;;;;;;6150217;23;20012;-88
2022/03/18 02:05:57;;;;;;;18.60;7.28;;;;;;;;;;6148805;23;20470;-88
2022/03/18 02:08:24;;;;;;;21.00;7.50;;;;;;;;;;6150064;23;20023;-89
2022/03/18 02:10:50;;;;;;;20.23;7.45;;;;;;;;;;6149556;23;20016;-89
2022/03/18 02:13:18;;;;;;;17.70;6.47;;;;;;;;;;6147265;23;20023;-89
2022/03/18 02:15:44;;;;;;;18.38;7.20;;;;;;;;;;6148074;23;20024;-89
2022/03/18 02:18:11;;;;;;;20.67;8.32;;;;;;;;;;6150597;23;20012;-89
2022/03/18 02:20:48;;;;;;;23.80;8.45;;;;;;;;;;6149569;23;20354;-89
2022/03/18 02:23:17;;;;;;;15.50;6.38;;;;;;;;;;6148049;23;20114;-88
2022/03/18 02:25:44;;;;;;;20.23;7.93;;;;;;;;;;6146320;23;20068;-89
2022/03/18 02:28:13;;;;;;;21.05;8.27;;;;;;;;;;6148544;23;20027;-88
2022/03/18 02:30:39;;;;;;;23.83;9.15;;;;;;;;;;6148615;23;20016;-89
2022/03/18 02:33:06;;;;;;;25.83;8.90;;;;;;;;;;6149034;23;20028;-89
2022/03/18 02:35:32;;;;;;;20.20;8.43;;;;;;;;;;6147266;23;20017;-88
2022/03/18 02:37:59;;;;;;;17.88;6.68;;;;;;;;;;6149860;23;20017;-88
2022/03/18 02:40:29;;;;;;;16.50;7.18;;;;;;;;;;6150112;23;20016;-89
2022/03/18 02:42:59;;;;;;;19.88;8.00;;;;;;;;;;6151061;23;20009;-89
2022/03/18 02:45:26;;;;;;;19.90;7.82;;;;;;;;;;6153339;23;20017;-89
2022/03/18 02:47:52;;;;;;;23.85;8.07;;;;;;;;;;6151435;23;20092;-90
2022/03/18 02:50:18;;;;;;;25.60;9.70;;;;;;;;;;6154136;23;20017;-90
2022/03/18 02:52:45;;;;;;;28.92;9.07;;;;;;;;;;6152859;23;20394;-89
2022/03/18 02:55:12;;;;;;;25.50;10.02;;;;;;;;;;6153104;23;20056;-89
2022/03/18 02:57:39;;;;;;;27.58;10.65;;;;;;;;;;6154519;23;20012;-89
2022/03/18 03:00:06;;;;;;;35.75;14.38;;;;;;;;;;6153955;23;20577;-89
2022/03/18 03:02:32;;;;;;;39.55;13.93;;;;;;;;;;6152998;23;20059;-90
2022/03/18 03:08:01;;;;;;;36.88;14.75;;;;;;;;;;6202422;23;20043;-90
2022/03/18 03:10:29;;;;;;;40.22;16.30;;;;;;;;;;6155361;23;20074;-89
2022/03/18 03:13:01;;;;;;;35.17;14.60;;;;;;;;;;6154164;23;20081;-89
2022/03/18 03:15:27;;;;;;;36.67;15.10;;;;;;;;;;6153002;23;20013;-89
2022/03/18 03:17:55;;;;;;;33.72;13.77;;;;;;;;;;6151882;23;20032;-89
2022/03/18 03:20:21;;;;;;;38.83;13.77;;;;;;;;;;6150867;23;20103;-89
2022/03/18 03:22:48;;;;;;;32.97;13.95;;;;;;;;;;6152402;23;20511;-89
2022/03/18 03:25:15;;;;;;;34.38;16.05;;;;;;;;;;6150755;23;20096;-90
2022/03/18 03:27:42;;;;;;;31.23;12.65;;;;;;;;;;6152737;23;20015;-89
2022/03/18 03:30:09;;;;;;;31.15;11.73;;;;;;;;;;6152066;23;20096;-89
2022/03/18 03:32:37;;;;;;;30.77;12.05;;;;;;;;;;6150368;23;20017;-89
2022/03/18 03:35:04;;;;;;;27.35;11.50;;;;;;;;;;6150668;23;20039;-90
2022/03/18 03:37:30;;;;;;;36.47;12.98;;;;;;;;;;6152008;23;20057;-89
2022/03/18 03:39:57;;;;;;;27.42;12.85;;;;;;;;;;6150256;23;20046;-90
2022/03/18 03:42:27;;;;;;;27.95;12.20;;;;;;;;;;6151086;23;20088;-89
2022/03/18 03:44:54;;;;;;;38.45;13.65;;;;;;;;;;6156435;23;20012;-90
2022/03/18 03:47:21;;;;;;;36.90;14.25;;;;;;;;;;6152886;23;20584;-90
2022/03/18 03:49:47;;;;;;;37.05;14.40;;;;;;;;;;6150188;23;20411;-90
2022/03/18 03:52:14;;;;;;;25.10;12.82;;;;;;;;;;6150711;23;20016;-89
2022/03/18 03:54:40;;;;;;;24.48;10.95;;;;;;;;;;6150951;23;20370;-89
2022/03/18 03:57:07;;;;;;;22.92;10.32;;;;;;;;;;6150337;23;20020;-89
2022/03/18 03:59:34;;;;;;;22.27;9.95;;;;;;;;;;6150978;23;20016;-89
2022/03/18 04:02:02;;;;;;;17.50;8.65;;;;;;;;;;6153021;23;20454;-89
2022/03/18 04:04:32;;;;;;;22.02;10.02;;;;;;;;;;6149327;23;20087;-90
2022/03/18 04:06:59;;;;;;;21.63;9.82;;;;;;;;;;6154304;23;20013;-89
2022/03/18 04:09:25;;;;;;;28.40;10.65;;;;;;;;;;6153683;23;20043;-89
2022/03/18 04:11:52;;;;;;;23.45;9.85;;;;;;;;;;6154978;23;20058;-89
2022/03/18 04:14:21;;;;;;;27.42;9.73;;;;;;;;;;6154966;23;20054;-89
2022/03/18 04:16:50;;;;;;;24.52;9.75;;;;;;;;;;6156101;23;20012;-90
2022/03/18 04:19:25;;;;;;;27.50;11.05;;;;;;;;;;6156054;23;20023;-89
2022/03/18 04:21:54;;;;;;;24.15;10.13;;;;;;;;;;6153484;23;20008;-90
2022/03/18 04:24:20;;;;;;;30.33;10.77;;;;;;;;;;6154691;23;20098;-90
2022/03/18 04:26:47;;;;;;;21.05;8.88;;;;;;;;;;6130175;23;20012;-90
2022/03/18 04:29:13;;;;;;;19.52;9.20;;;;;;;;;;6153918;23;20017;-89
2022/03/18 04:31:40;;;;;;;21.13;9.32;;;;;;;;;;6152238;23;20040;-89
2022/03/18 04:34:07;;;;;;;21.50;9.13;;;;;;;;;;6153325;23;20615;-89
2022/03/18 04:36:33;;;;;;;24.08;10.80;;;;;;;;;;6154106;23;20023;-90
2022/03/18 04:39:00;;;;;;;25.58;9.55;;;;;;;;;;6152251;23;20013;-89
2022/03/18 04:41:27;;;;;;;21.10;10.15;;;;;;;;;;6151682;23;20485;-90
2022/03/18 04:43:56;;;;;;;23.80;10.50;;;;;;;;;;6152640;23;20503;-89
2022/03/18 04:46:28;;;;;;;26.67;9.48;;;;;;;;;;6154282;23;20013;-90
2022/03/18 04:48:55;;;;;;;18.48;9.13;;;;;;;;;;6153932;23;20040;-89
2022/03/18 04:51:21;;;;;;;22.30;8.30;;;;;;;;;;6155876;23;20260;-90
2022/03/18 04:53:48;;;;;;;18.08;8.40;;;;;;;;;;6154171;23;20458;-89
2022/03/18 04:59:01;;;;;;;19.10;7.65;;;;;;;;;;6158257;23;20023;-89
2022/03/18 05:01:31;;;;;;;21.95;8.45;;;;;;;;;;6151292;23;20047;-90
2022/03/18 05:03:57;;;;;;;22.02;9.10;;;;;;;;;;6153458;23;20016;-89
2022/03/18 05:06:24;;;;;;;22.88;9.25;;;;;;;;;;6151991;23;20009;-89
2022/03/18 05:08:53;;;;;;;27.25;9.95;;;;;;;;;;6154644;23;20016;-89
2022/03/18 05:11:22;;;;;;;30.33;10.52;;;;;;;;;;6153282;23;20055;-89
2022/03/18 05:13:49;;;;;;;24.48;10.20;;;;;;;;;;6151627;23;20102;-89
2022/03/18 05:16:15;;;;;;;28.42;10.10;;;;;;;;;;6150029;23;20473;-89
2022/03/18 05:18:44;;;;;;;27.20;12.05;;;;;;;;;;6150722;23;20048;-89
2022/03/18 05:21:14;;;;;;;27.52;11.32;;;;;;;;;;6151871;23;20022;-89
2022/03/18 05:23:40;;;;;;;33.08;11.70;;;;;;;;;;6147742;23;20099;-89
2022/03/18 05:26:07;;;;;;;29.42;12.93;;;;;;;;;;6144947;23;20040;-89
2022/03/18 05:28:33;;;;;;;30.95;13.45;;;;;;;;;;6150945;23;20067;-89
2022/03/18 05:31:02;;;;;;;31.88;13.05;;;;;;;;;;6154776;23;20321;-89
2022/03/18 05:33:28;;;;;;;27.65;12.88;;;;;;;;;;6150432;23;20412;-90
2022/03/18 05:35:55;;;;;;;29.40;13.52;;;;;;;;;;6151238;23;20024;-90
2022/03/18 05:38:29;;;;;;;25.58;13.27;;;;;;;;;;6151086;23;20025;-89
2022/03/18 05:40:55;;;;;;;22.90;11.00;;;;;;;;;;6148948;23;20016;-89
2022/03/18 05:43:24;;;;;;;25.30;12.15;;;;;;;;;;6151589;23;20464;-89
2022/03/18 05:45:55;;;;;;;25.67;11.77;;;;;;;;;;6151640;23;20341;-90
2022/03/18 05:48:25;;;;;;;30.48;12.43;;;;;;;;;;6149924;23;20473;-90
2022/03/18 05:50:51;;;;;;;29.77;11.73;;;;;;;;;;6150658;23;20194;-89
2022/03/18 05:53:25;;;;;;;25.60;10.88;;;;;;;;;;6148944;23;20055;-89
2022/03/18 05:58:47;;;;;;;29.40;12.00;;;;;;;;;;6200519;23;20047;-89
2022/03/18 06:01:13;;;;;;;26.27;11.30;;;;;;;;;;6150227;23;20604;-90
2022/03/18 06:03:40;;;;;;;22.67;11.50;;;;;;;;;;6152328;23;20013;-90
2022/03/18 06:06:10;;;;;;;32.95;12.57;;;;;;;;;;6154348;23;20017;-90
2022/03/18 06:14:14;;;;;;;34.05;15.10;;;;;;;;;;6200697;23;20028;-90
2022/03/18 06:16:51;;;;;;;31.85;15.75;;;;;;;;;;6153088;23;20032;-89
2022/03/18 06:19:24;;;;;;;34.67;17.52;;;;;;;;;;6155304;23;20013;-89
2022/03/18 06:21:50;;;;;;;30.65;17.25;;;;;;;;;;6158549;23;20079;-90
2022/03/18 06:24:28;;;;;;;32.60;14.95;;;;;;;;;;6158888;23;20020;-90
2022/03/18 06:26:58;;;;;;;35.22;12.75;;;;;;;;;;6183796;23;20095;-90
2022/03/18 06:29:27;;;;;;;26.35;12.68;;;;;;;;;;6153632;23;20099;-91
2022/03/18 06:32:06;;;;;;;;;;;;;;;;;;;;;
2022/03/18 06:34:44;;;;;;;28.45;13.32;;;;;;;;;;6201929;23;20012;-90
2022/03/18 06:43:31;;;;;;;25.63;13.70;;;;;;;;;;6148137;23;20022;-90
2022/03/18 06:46:11;;;;;;;33.08;13.75;;;;;;;;;;6150354;23;20013;-90
2022/03/18 06:48:59;;;;;;;25.27;14.52;;;;;;;;;;6149036;23;20020;-91
2022/03/18 06:51:32;;;;;;;26.33;15.48;;;;;;;;;;6148340;23;20096;-90
2022/03/18 06:54:01;;;;;;;27.80;14.30;;;;;;;;;;6149851;23;20012;-90
2022/03/18 06:56:30;;;;;;;31.20;15.63;;;;;;;;;;6126328;23;20117;-90
2022/03/18 06:59:03;;;;;;;29.65;15.50;;;;;;;;;;6149602;23;20032;-91
2022/03/18 07:01:38;;;;;;;28.60;13.55;;;;;;;;;;6146532;23;20013;-91
2022/03/18 07:04:13;;;;;;;30.13;15.05;;;;;;;;;;6146761;23;20009;-90
2022/03/18 07:06:43;;;;;;;29.27;15.23;;;;;;;;;;6148020;23;20013;-91
2022/03/18 07:09:12;;;;;;;31.20;14.30;;;;;;;;;;6148181;23;20013;-91
2022/03/18 07:11:53;;;;;;;28.90;14.93;;;;;;;;;;6153669;23;20020;-90
2022/03/18 07:14:20;;;;;;;30.38;15.93;;;;;;;;;;6154356;23;20020;-90
2022/03/18 07:19:44;;;;;;;31.13;16.75;;;;;;;;;;6170569;23;20074;-90
2022/03/18 07:22:16;;;;;;;36.90;17.75;;;;;;;;;;6154301;23;20177;-90
2022/03/18 07:24:46;;;;;;;32.13;17.70;;;;;;;;;;6154788;23;20012;-90
2022/03/18 07:27:32;;;;;;;33.50;17.75;;;;;;;;;;6155734;23;20425;-90
2022/03/18 07:30:01;;;;;;;39.33;18.45;;;;;;;;;;6155845;23;20387;-91
2022/03/18 07:32:27;;;;;;;40.38;19.70;;;;;;;;;;6154988;23;20013;-90
2022/03/18 07:34:54;;;;;;;34.78;18.52;;;;;;;;;;6156199;23;20083;-90
2022/03/18 07:37:26;;;;;;;31.90;19.70;;;;;;;;;;6156216;23;20230;-91
2022/03/18 07:40:01;;;;;;;33.35;19.73;;;;;;;;;;6155617;23;20048;-90
2022/03/18 07:42:27;;;;;;;28.88;16.88;;;;;;;;;;6155167;23;20207;-89
2022/03/18 07:54:38;;;;;;;33.58;17.88;;;;;;;;;;6183332;23;20021;-89
2022/03/18 07:57:38;;;;;;;27.95;18.02;;;;;;;;;;6137870;23;20148;-89
2022/03/18 08:00:43;;;;;;;37.42;18.65;;;;;;;;;;6159115;23;20401;-90
2022/03/18 08:07:11;;;;;;;35.20;18.30;;;;;;;;;;5981814;24;20087;-89
2022/03/18 08:09:43;;;;;;;26.85;18.08;;;;;;;;;;6148971;23;20487;-90
2022/03/18 08:12:15;;;;;;;28.88;18.17;;;;;;;;;;6103594;23;20013;-90
2022/03/18 08:14:45;;;;;;;30.40;18.83;;;;;;;;;;6102081;23;20514;-90
2022/03/18 08:17:11;;;;;;;32.40;19.02;;;;;;;;;;6078142;23;20146;-89
2022/03/18 08:19:40;;;;;;;36.33;19.23;;;;;;;;;;6080465;23;20088;-89
2022/03/18 08:22:08;;;;;;;31.70;19.08;;;;;;;;;;6102804;23;20437;-89
2022/03/18 08:24:37;;;;;;;30.02;19.23;;;;;;;;;;6101284;23;20025;-93
2022/03/18 08:27:28;;;;;;;30.08;17.80;;;;;;;;;;6105993;23;20017;-89
2022/03/18 08:30:04;;;;;;;32.97;18.63;;;;;;;;;;6100652;23;20075;-89
2022/03/18 08:32:34;;;;;;;31.90;18.27;;;;;;;;;;6130545;23;20055;-89
2022/03/18 08:35:03;;;;;;;34.17;19.45;;;;;;;;;;6106182;23;20028;-89
2022/03/18 08:37:56;;;;;;;35.20;19.27;;;;;;;;;;6131492;23;20021;-88
2022/03/18 08:40:23;;;;;;;34.53;19.03;;;;;;;;;;6130358;23;20149;-89
2022/03/18 08:42:50;;;;;;;36.97;19.13;;;;;;;;;;6131038;23;20052;-90
2022/03/18 08:45:18;;;;;;;29.67;18.75;;;;;;;;;;6129782;23;20048;-88
2022/03/18 08:47:44;;;;;;;31.60;19.17;;;;;;;;;;6105593;23;20013;-88
2022/03/18 08:50:11;;;;;;;34.65;18.58;;;;;;;;;;6130637;23;20023;-89
2022/03/18 08:52:37;;;;;;;38.75;17.40;;;;;;;;;;6128881;23;20254;-90
2022/03/18 08:55:04;;;;;;;34.35;18.98;;;;;;;;;;6127784;23;20013;-88
2022/03/18 08:57:36;;;;;;;37.83;18.33;;;;;;;;;;6126565;23;20017;-92
2022/03/18 09:00:05;;;;;;;32.85;18.42;;;;;;;;;;6102967;23;20013;-92
2022/03/18 09:02:31;;;;;;;37.08;18.25;;;;;;;;;;6126317;23;20049;-89
2022/03/18 09:04:57;;;;;;;34.03;17.58;;;;;;;;;;6101424;23;20496;-89
2022/03/18 09:07:24;;;;;;;42.03;17.50;;;;;;;;;;6128416;23;20012;-88
2022/03/18 09:09:50;;;;;;;35.58;15.80;;;;;;;;;;6157657;23;20031;-88
2022/03/18 09:12:18;;;;;;;33.88;14.88;;;;;;;;;;6157588;23;20457;-89
2022/03/18 09:14:44;;;;;;;31.38;15.02;;;;;;;;;;6159621;23;20013;-88
2022/03/18 09:17:10;;;;;;;31.73;15.80;;;;;;;;;;6208546;23;20063;-92
2022/03/18 09:19:37;;;;;;;33.90;17.17;;;;;;;;;;6155686;23;20021;-89
2022/03/18 09:22:07;;;;;;;32.33;15.15;;;;;;;;;;6158283;23;20236;-89
2022/03/18 09:24:38;;;;;;;36.25;15.15;;;;;;;;;;6156806;23;20008;-90
2022/03/18 09:27:05;;;;;;;33.70;14.93;;;;;;;;;;6157629;23;20059;-87
2022/03/18 09:29:31;;;;;;;35.95;16.00;;;;;;;;;;6140830;23;20009;-88
2022/03/18 09:32:05;;;;;;;33.35;14.57;;;;;;;;;;6102553;23;20013;-90
2022/03/18 09:34:31;;;;;;;32.65;15.45;;;;;;;;;;6127930;23;20079;-88
2022/03/18 09:36:58;;;;;;;27.50;14.48;;;;;;;;;;6102551;23;20096;-88
2022/03/18 09:39:25;;;;;;;34.05;14.85;;;;;;;;;;6150554;23;20017;-89
2022/03/18 09:41:52;;;;;;;32.38;13.98;;;;;;;;;;6103137;23;20061;-89
2022/03/18 09:44:22;;;;;;;38.58;15.32;;;;;;;;;;6126340;23;20458;-88
2022/03/18 13:54:53;;;;;;;15.30;5.20;;;;;;;;;;6183171;23;20071;-91
2022/03/18 13:57:21;;;;;;;15.13;4.65;;;;;;;;;;6173025;23;20311;-90
2022/03/18 13:59:54;;;;;;;11.57;4.80;;;;;;;;;;6153326;23;20016;-91
2022/03/18 14:02:32;;;;;;;11.52;4.47;;;;;;;;;;6152992;23;20024;-91
2022/03/18 14:39:15;;;;;;;10.80;3.28;;;;;;;;;;6169609;23;20190;-88
2022/03/18 14:41:44;;;;;;;9.52;2.58;;;;;;;;;;6102713;23;20469;-89
2022/03/18 14:44:15;;;;;;;10.32;3.03;;;;;;;;;;6155817;23;20022;-89
2022/03/18 14:46:51;;;;;;;10.75;3.20;;;;;;;;;;6127857;23;20107;-88
2022/03/18 14:49:29;;;;;;;9.25;3.22;;;;;;;;;;6107692;23;20044;-89
2022/03/18 14:51:55;;;;;;;12.82;3.17;;;;;;;;;;6124603;23;20048;-89
2022/03/18 14:56:17;;;;;;;14.32;4.07;;;;;;;;;;6120860;23;20099;-90
2022/03/18 14:57:08;;;;;;;13.90;4.18;;;;;;;;;;6148769;23;20017;-89
2022/03/18 14:59:34;;;;;;;11.98;3.55;;;;;;;;;;6122504;23;20096;-90
2022/03/18 15:02:00;;;;;;;16.48;4.18;;;;;;;;;;6099452;23;20474;-88
2022/03/18 15:04:29;;;;;;;12.52;3.63;;;;;;;;;;6122494;23;20021;-91
2022/03/18 15:06:55;;;;;;;11.23;4.07;;;;;;;;;;6124737;23;20452;-90
2022/03/18 15:09:22;;;;;;;12.70;4.47;;;;;;;;;;6125667;23;20443;-91
2022/03/18 15:11:51;;;;;;;14.48;5.30;;;;;;;;;;6128295;23;20540;-88
2022/03/18 15:14:18;;;;;;;14.93;5.28;;;;;;;;;;6101764;23;20266;-89
2022/03/18 15:16:47;;;;;;;12.65;4.57;;;;;;;;;;6124070;23;20009;-91
2022/03/18 15:19:13;;;;;;;11.93;4.43;;;;;;;;;;6122036;23;20538;-88
2022/03/18 15:21:39;;;;;;;12.88;4.47;;;;;;;;;;6124710;23;20075;-89
2022/03/18 15:24:24;;;;;;;15.50;5.13;;;;;;;;;;6102282;23;20013;-91
2022/03/18 15:26:53;;;;;;;17.92;5.50;;;;;;;;;;6126204;23;20013;-89
2022/03/18 15:29:23;;;;;;;13.57;5.70;;;;;;;;;;6126304;23;20017;-89
2022/03/18 15:31:50;;;;;;;15.88;6.30;;;;;;;;;;6101963;23;20125;-88
2022/03/18 15:34:19;;;;;;;21.10;7.05;;;;;;;;;;6125867;23;20019;-90
2022/03/18 15:36:46;;;;;;;15.20;5.60;;;;;;;;;;6128605;23;20099;-87
2022/03/18 15:39:17;;;;;;;13.63;6.18;;;;;;;;;;6125809;23;20241;-88
2022/03/18 15:41:46;;;;;;;17.58;6.55;;;;;;;;;;6101900;23;20474;-89
2022/03/18 15:44:12;;;;;;;18.27;6.57;;;;;;;;;;6105591;23;20095;-91
2022/03/18 15:46:48;;;;;;;15.00;5.90;;;;;;;;;;6101283;23;20009;-89
2022/03/18 15:49:20;;;;;;;20.17;7.15;;;;;;;;;;6125684;23;20013;-88
2022/03/18 15:51:56;;;;;;;18.17;7.25;;;;;;;;;;6121506;23;20013;-88
2022/03/18 15:54:28;;;;;;;20.55;6.82;;;;;;;;;;6099606;23;20384;-87
2022/03/18 15:56:58;;;;;;;18.35;7.40;;;;;;;;;;6122914;23;20017;-90
2022/03/18 15:59:27;;;;;;;20.88;7.22;;;;;;;;;;6122422;23;20013;-90
2022/03/18 16:01:56;;;;;;;;;;;;;;;;;;6126706;23;20454;-90
2022/03/18 16:04:26;;;;;;;21.70;7.15;;;;;;;;;;6148218;23;19999;-88
2022/03/18 16:06:58;;;;;;;24.35;7.50;;;;;;;;;;6124139;23;20021;-87
2022/03/18 16:09:46;;;;;;;24.73;7.28;;;;;;;;;;6100653;23;20449;-90
2022/03/18 16:12:19;;;;;;;23.50;7.85;;;;;;;;;;6147910;23;20233;-89
2022/03/18 16:14:49;;;;;;;18.10;6.75;;;;;;;;;;6102081;23;20024;-88
2022/03/18 16:17:15;;;;;;;22.45;7.10;;;;;;;;;;6102001;23;20032;-88
2022/03/18 16:19:42;;;;;;;31.13;6.95;;;;;;;;;;6101907;23;20013;-88
2022/03/18 16:22:29;;;;;;;20.80;6.18;;;;;;;;;;6127436;23;20009;-89
2022/03/18 16:24:58;;;;;;;19.95;6.80;;;;;;;;;;6126053;23;20027;-89
2022/03/18 16:27:28;;;;;;;39.35;11.40;;;;;;;;;;6125920;23;20017;-89
2022/03/18 16:29:57;;;;;;;22.67;6.25;;;;;;;;;;6124285;23;20013;-88
2022/03/18 16:32:27;;;;;;;39.83;11.07;;;;;;;;;;6102491;23;20220;-87
2022/03/18 16:34:55;;;;;;;22.75;5.88;;;;;;;;;;6126532;23;20013;-88
2022/03/18 16:37:25;;;;;;;21.23;6.22;;;;;;;;;;6126738;23;20063;-89
2022/03/18 16:39:51;;;;;;;17.27;6.38;;;;;;;;;;6127304;23;20052;-87
2022/03/18 16:42:20;;;;;;;20.85;5.40;;;;;;;;;;6101936;23;20015;-91
2022/03/18 16:44:50;;;;;;;22.38;5.57;;;;;;;;;;6124936;23;20100;-87
2022/03/18 16:50:56;;;;;;;30.52;6.22;;;;;;;;;;6087026;23;20019;-89
2022/03/18 16:53:25;;;;;;;20.48;4.97;;;;;;;;;;6039434;23;20018;-87
2022/03/18 16:55:57;;;;;;;18.33;5.13;;;;;;;;;;6037374;23;20010;-88
2022/03/18 16:58:30;;;;;;;26.52;5.60;;;;;;;;;;6061903;23;20053;-90
2022/03/18 17:01:23;;;;;;;20.50;5.43;;;;;;;;;;6033721;23;20025;-89
2022/03/18 17:04:13;;;;;;;23.90;6.05;;;;;;;;;;6060019;23;20057;-88
2022/03/18 17:06:46;;;;;;;22.50;5.75;;;;;;;;;;6059453;23;20332;-88
2022/03/18 17:09:14;;;;;;;19.90;5.30;;;;;;;;;;6034143;23;20427;-88
2022/03/18 17:11:46;;;;;;;26.88;6.10;;;;;;;;;;6034837;23;20018;-89
2022/03/18 17:14:15;;;;;;;22.77;5.60;;;;;;;;;;6060817;23;20057;-89
2022/03/18 17:16:42;;;;;;;23.77;5.20;;;;;;;;;;6062288;23;20014;-88
2022/03/18 17:19:16;;;;;;;25.85;6.05;;;;;;;;;;6133338;23;20091;-88
2022/03/18 17:21:43;;;;;;;22.25;5.38;;;;;;;;;;6126174;23;20031;-90
2022/03/18 17:24:13;;;;;;;22.10;5.30;;;;;;;;;;6128674;23;20027;-87
2022/03/18 17:26:43;;;;;;;28.75;6.00;;;;;;;;;;6129595;23;20441;-88
2022/03/18 17:29:15;;;;;;;22.67;4.80;;;;;;;;;;6101856;23;20019;-88
2022/03/18 17:31:42;;;;;;;25.17;5.85;;;;;;;;;;6103058;23;20446;-88
2022/03/18 17:34:09;;;;;;;27.13;5.65;;;;;;;;;;6125707;23;20474;-85
2022/03/18 17:36:38;;;;;;;29.10;5.95;;;;;;;;;;6102075;23;20017;-87
2022/03/18 17:39:09;;;;;;;34.17;8.80;;;;;;;;;;6125022;23;20021;-89
2022/03/18 17:41:36;;;;;;;36.72;11.60;;;;;;;;;;6125406;23;20529;-91
2022/03/18 17:44:06;;;;;;;40.45;12.55;;;;;;;;;;6123813;23;20071;-90
2022/03/18 17:46:41;;;;;;;34.30;10.80;;;;;;;;;;6125712;23;20017;-89
2022/03/18 17:49:16;;;;;;;34.65;10.30;;;;;;;;;;6126222;23;20609;-91
2022/03/18 17:51:58;;;;;;;35.35;9.02;;;;;;;;;;6128496;23;20017;-91
2022/03/18 17:54:42;;;;;;;36.10;9.77;;;;;;;;;;6127758;23;20536;-90
2022/03/18 17:57:19;;;;;;;34.10;8.18;;;;;;;;;;6130152;23;20013;-89
2022/03/18 17:59:53;;;;;;;31.60;8.50;;;;;;;;;;6131922;23;20020;-91
2022/03/18 18:02:34;;;;;;;33.13;8.27;;;;;;;;;;6129621;23;20020;-90
2022/03/18 18:05:19;;;;;;;28.52;8.95;;;;;;;;;;6109070;23;20048;-90
2022/03/18 18:07:46;;;;;;;35.90;9.07;;;;;;;;;;6127362;23;20025;-91
2022/03/18 18:10:17;;;;;;;29.42;9.73;;;;;;;;;;6126263;23;20446;-90
2022/03/18 18:12:44;;;;;;;34.13;9.60;;;;;;;;;;6127852;23;20017;-90
2022/03/18 18:15:11;;;;;;;37.78;11.18;;;;;;;;;;6130163;23;20314;-90
2022/03/18 18:17:45;;;;;;;34.25;11.02;;;;;;;;;;6132463;23;20020;-91
2022/03/18 18:22:59;;;;;;;30.42;9.38;;;;;;;;;;6179673;23;20021;-91
2022/03/18 18:25:33;;;;;;;34.35;9.25;;;;;;;;;;6135635;23;20346;-91
2022/03/18 18:28:01;;;;;;;32.17;8.52;;;;;;;;;;6106900;23;20013;-90
2022/03/18 18:30:30;;;;;;;33.28;10.27;;;;;;;;;;6138345;23;20024;-91
2022/03/18 18:33:11;;;;;;;31.45;9.27;;;;;;;;;;6134981;23;20021;-91
2022/03/18 18:35:39;;;;;;;35.65;7.60;;;;;;;;;;6131533;23;20016;-90
2022/03/18 18:38:08;;;;;;;32.15;7.18;;;;;;;;;;6103608;23;20060;-90
2022/03/18 18:40:48;;;;;;;32.78;7.57;;;;;;;;;;6123920;23;20446;-90
2022/03/18 18:43:23;;;;;;;26.70;6.75;;;;;;;;;;6127496;23;20342;-92
2022/03/18 18:45:50;;;;;;;23.38;6.45;;;;;;;;;;6124663;23;20437;-89
2022/03/18 18:48:16;;;;;;;32.55;7.60;;;;;;;;;;6100345;23;20465;-89
2022/03/18 18:50:47;;;;;;;33.75;7.75;;;;;;;;;;6100204;23;20024;-90
2022/03/18 18:53:13;;;;;;;27.40;6.38;;;;;;;;;;6124131;23;20039;-90
2022/03/18 18:55:39;;;;;;;29.15;5.75;;;;;;;;;;6099274;23;20071;-89
2022/03/18 18:58:05;;;;;;;32.15;7.28;;;;;;;;;;6101604;23;20513;-88
2022/03/18 19:00:34;;;;;;;34.53;6.35;;;;;;;;;;6123342;23;20017;-88
2022/03/18 19:03:01;;;;;;;24.08;5.82;;;;;;;;;;6124477;23;20017;-86
2022/03/18 19:05:27;;;;;;;37.65;6.35;;;;;;;;;;6123284;23;20013;-87
2022/03/18 19:07:54;;;;;;;20.95;5.38;;;;;;;;;;6125663;23;20020;-88
2022/03/18 19:10:21;;;;;;;25.05;6.03;;;;;;;;;;6127750;23;20169;-88
2022/03/18 19:12:47;;;;;;;33.92;5.63;;;;;;;;;;6124981;23;20091;-87
2022/03/18 19:15:17;;;;;;;32.10;5.55;;;;;;;;;;6125964;23;20100;-90
2022/03/18 19:17:46;;;;;;;25.73;5.78;;;;;;;;;;6123068;23;20105;-90
2022/03/18 19:20:25;;;;;;;;;;;;;;;;;;;;;
2022/03/18 19:22:52;;;;;;;24.05;5.78;;;;;;;;;;6176164;23;20009;-91
2022/03/18 19:25:18;;;;;;;27.55;6.63;;;;;;;;;;6100232;23;20013;-88
2022/03/18 19:28:08;;;;;;;24.02;5.40;;;;;;;;;;6120760;23;20017;-92
2022/03/18 19:30:37;;;;;;;27.60;5.60;;;;;;;;;;6099444;23;20052;-89
2022/03/18 19:33:05;;;;;;;29.40;6.47;;;;;;;;;;6121192;23;20017;-89
2022/03/18 19:35:33;;;;;;;25.90;5.78;;;;;;;;;;6120910;23;20028;-91
2022/03/18 19:37:59;;;;;;;24.75;5.53;;;;;;;;;;6173851;23;20017;-91
2022/03/18 19:40:26;;;;;;;31.00;6.70;;;;;;;;;;6122686;23;20024;-90
2022/03/18 19:42:52;;;;;;;25.45;6.53;;;;;;;;;;6121619;23;20172;-90
2022/03/18 19:45:18;;;;;;;27.63;6.72;;;;;;;;;;6102047;23;20243;-90
2022/03/18 19:47:45;;;;;;;28.20;5.93;;;;;;;;;;6125845;23;20017;-90
2022/03/18 19:50:12;;;;;;;29.30;5.60;;;;;;;;;;6100043;23;20473;-89
2022/03/18 19:52:39;;;;;;;34.75;6.72;;;;;;;;;;6124452;23;20017;-91
2022/03/18 19:55:06;;;;;;;27.25;6.47;;;;;;;;;;6124903;23;20025;-89
2022/03/18 20:03:01;;;;;;;34.10;6.72;;;;;;;;;;6176084;23;20020;-90
2022/03/18 20:05:28;;;;;;;34.95;7.05;;;;;;;;;;6095160;23;20017;-90
2022/03/18 20:07:55;;;;;;;23.65;6.13;;;;;;;;;;6122426;23;20024;-89
2022/03/18 20:10:21;;;;;;;30.35;6.95;;;;;;;;;;6121766;23;20021;-89
2022/03/18 20:12:48;;;;;;;35.47;6.68;;;;;;;;;;6094927;23;20521;-89
2022/03/18 20:15:16;;;;;;;25.92;6.88;;;;;;;;;;6097029;23;20024;-90
2022/03/18 20:17:49;;;;;;;31.98;5.93;;;;;;;;;;6122333;23;20147;-91
2022/03/18 20:20:21;;;;;;;33.22;7.50;;;;;;;;;;6127768;23;20024;-90
2022/03/18 20:22:49;;;;;;;33.58;7.32;;;;;;;;;;6097478;23;20013;-90
2022/03/18 20:25:17;;;;;;;29.80;7.38;;;;;;;;;;6123082;23;20398;-89
2022/03/18 20:27:44;;;;;;;29.95;6.85;;;;;;;;;;6122909;23;20020;-88
2022/03/18 20:30:11;;;;;;;39.45;7.82;;;;;;;;;;6093315;23;20016;-89
2022/03/18 20:32:37;;;;;;;31.15;7.22;;;;;;;;;;6171361;23;20013;-90
2022/03/18 20:35:04;;;;;;;23.98;6.68;;;;;;;;;;6122086;23;20024;-90
2022/03/18 20:37:33;;;;;;;37.17;7.80;;;;;;;;;;6122775;23;20017;-90
2022/03/18 20:39:59;;;;;;;35.92;7.82;;;;;;;;;;6095752;23;20076;-89
2022/03/18 20:42:25;;;;;;;44.88;8.40;;;;;;;;;;6123445;23;20017;-90
2022/03/18 20:44:52;;;;;;;34.03;8.40;;;;;;;;;;6122676;23;20013;-90
2022/03/18 20:47:18;;;;;;;32.42;8.48;;;;;;;;;;6121550;23;20363;-89
2022/03/18 20:49:44;;;;;;;30.73;6.95;;;;;;;;;;6097812;23;20017;-91
2022/03/18 20:52:11;;;;;;;29.02;7.35;;;;;;;;;;6122653;23;20462;-90
2022/03/18 20:54:37;;;;;;;31.55;6.70;;;;;;;;;;6127216;23;20096;-89
2022/03/18 20:57:03;;;;;;;31.38;7.28;;;;;;;;;;6097000;23;20056;-90
2022/03/18 20:59:30;;;;;;;26.88;6.43;;;;;;;;;;6120256;23;20017;-89
2022/03/18 21:01:56;;;;;;;35.58;6.63;;;;;;;;;;6122592;23;20029;-90
2022/03/18 21:04:22;;;;;;;43.30;7.30;;;;;;;;;;6122261;23;20020;-89
2022/03/18 21:06:50;;;;;;;30.30;6.72;;;;;;;;;;6123472;23;20504;-89
2022/03/18 21:09:16;;;;;;;33.67;6.93;;;;;;;;;;6123347;23;20013;-89
2022/03/18 21:11:42;;;;;;;32.55;7.32;;;;;;;;;;6122259;23;20417;-90
2022/03/18 21:14:08;;;;;;;28.73;6.43;;;;;;;;;;6121069;23;20442;-90
2022/03/18 21:16:35;;;;;;;41.35;8.07;;;;;;;;;;6118533;23;20552;-90
2022/03/18 21:19:04;;;;;;;30.15;6.82;;;;;;;;;;6118875;23;20024;-89
2022/03/18 21:21:32;;;;;;;32.65;7.18;;;;;;;;;;6123564;23;20021;-88
2022/03/18 21:23:58;;;;;;;34.53;6.70;;;;;;;;;;6119890;23;20013;-89
2022/03/18 21:31:56;;;;;;;30.58;6.72;;;;;;;;;;6149201;23;20024;-89
2022/03/18 21:34:22;;;;;;;32.38;6.10;;;;;;;;;;6121422;23;20055;-89
2022/03/18 21:36:49;;;;;;;28.95;6.53;;;;;;;;;;6122036;23;20024;-89
2022/03/18 21:39:15;;;;;;;25.73;6.00;;;;;;;;;;6121151;23;20017;-89
2022/03/18 21:41:45;;;;;;;26.23;6.68;;;;;;;;;;6120548;23;20024;-90
2022/03/18 21:44:11;;;;;;;33.20;7.85;;;;;;;;;;6095981;23;20100;-90